KMBS/MBS METAR and TAF weather

Enter ICAO airport designator
Station Type Date Time Source
KMBS METAR 2021/07/26 16:53 UTC NOAA

KMBS 261653Z 26011KT 10SM CLR 30/15 A2998 RMK AO2 SLP149 T03000150


Station Type Date Time Source
KMBS Decoded METAR 2021/07/26 16:53 UTC NOAA

MBS INTERNATIONAL AIRPORT, MI, United States (KMBS) 43-32N 084-05W 202M
Jul 26, 2021 - 12:53 PM EDT / 2021.07.26 1653 UTC
Wind: from the W (260 degrees) at 13 MPH (11 KT):0
Visibility: 10 mile(s):0
Sky conditions: clear
Temperature: 86.0 F (30.0 C)
Dew Point: 59.0 F (15.0 C)
Relative Humidity: 40%
Pressure (altimeter): 29.98 in. Hg (1015 hPa)
ob: KMBS 261653Z 26011KT 10SM CLR 30/15 A2998 RMK AO2 SLP149 T03000150
cycle: 17

Station Type Date Time Source
KMBS TAF 2021/07/26 12:33 UTC NOAA

TAF KMBS 261130Z 2612/2712 27004KT P6SM SKC
FM261600 30008KT P6SM FEW070
FM270000 20003KT P6SM SKC
FM270900 24005KT P6SM BKN100

Example: see airport list